FLIGHT INFORMATION
United Airlines

UAL724

At Arrival Gate

KMSY
 KIAH
DATE: 2019-12-31
GATE:  -
GATE DEPARTURE: 22:19
TAKEOFF: 22:30
DATE: 2019-12-31
GATE:  -
LANDING: 23:29
GATE ARRIVAL: 23:35
FLIGHT DATA
Crew: MICHAEL ROTH
Speed: 388 kts Altitude: 22000 ft
Stage Length: 264 nm
Route: 
Block Time: 1.3 Flight Time: 1
Fuel Used: 6810 LB
TRACK DATA
50000 FT1000 KTAltitudeSpeed
AIRCRAFT INFORMATION
Aircraft Type: B739BW
Registration: N79402
SELCAL:  MSN/LN: 30119 / 857
Operator: UNITED AIRLINES
Flights: 21 Block Time: 71.5 Flight Time: 64.3
Fuel Used: 396787 LB
  • DEPARTURE INFORMATION
    Date: 2019-12-31
    Airport: KMSY
    Gate:  -
    Gate Departure: 22:19
    Takeoff: 22:30
    ARRIVAL INFORMATION
    Date: 2019-12-31
    Airport: KIAH
    Gate:  -
    Landing: 23:29
    Gate Arrival: 23:35
  • FLIGHT DATA
    Crew: MICHAEL ROTH
    Speed: 388 kts Altitude: 22000 ft
    Stage Length: 143 nm
    Route: 
    Block Time: 1.3 Flight Time: 1
    Fuel Used: 6810 LB
  • AIRCRAFT INFORMATION
    Aircraft Type: B739BW
    Registration: N79402
    SELCAL:  MSN/LN: 30119 / 857
    Operator: United Airlines
    Flights: 21 Block Time: 71.5 Flight Time: 64.3
    Fuel Used: 396787 LB

DATALINK LOG | Newest first | Current as of: 2020-05-26 08:44:56
LABEL ID SEQUENCE CONTENT Dn/Up
QD363623:35 8.9▼ Dn
QC305323:29▼ Dn
2U0953KIAH 312353Z 00000KT 10SM SCT075 BKN250 12/01 A3016 RMK AO2 SLP215 T01170011 10167 20117 56007▲ Up
2S0953KIAH▼ Dn
QB301922:30▼ Dn
QA192622:19 15.7▼ Dn
A30057CLEARED TO KIAH VIA JEPEG GILCO5. SQUAWK 2433.▲ Up
A30005CLEARED TO KIAH VIA JEPEG GILCO5. SQUAWK 6771.▲ Up
A75754CLEARANCE AVAIL WITHIN 0:25 OF EDT▲ Up
B30802KMSY KIAH UAL724 N79402 ▼ Dn
2U0454KMSY 312153Z 34004KT 10SM FEW200 17/M01 A3012 RMK AO2 SLP204 T01671011▲ Up
2S0454KMSY▼ Dn
Q05249[LINK ACK]▲ Up
Q00341[LINK TEST]▼ Dn


AIRCRAFT HISTORY
FLIGHT DATE FLIGHT NUMBER ORIGIN DESTINATION ROUTE BLOCK TIME FLIGHT TIME FUEL USED (LB) PILOT
2020-05-15UAL519KTUL KORD 1.71.49519Steven Perry
2020-05-11UAL519KDEN KTUL 1.91.18798Steven Perry
2020-05-09UAL519KEWR KDEN 4.23.825854Steven Perry
2020-03-08UAL519MMUN KEWR 3.63.420449Steven Perry
2020-03-08UAL519KIAH MMUN 21.811103Steven Perry
2020-03-03UAL1968KSLC KIAH 2.92.515881Pete Locascio
2020-02-27UAL5833CYYZ KSLC 6.35.924187Pete Locascio
2020-02-25UAL6847MMPR CYYZ 2.82.124337Pete Locascio
2020-02-21UAL6820KGPI MMPR 4.54.124926Pete Locascio
2020-02-19UAL6890MMUN KGPI 6.66.332153Pete Locascio
2020-02-12UAL1119KDEN MMUN 4.23.922724Pete Locascio
2020-02-08UAL5880PAKT KDEN 3.53.218813Pete Locascio
2020-02-06UAL8128KIDA PAKT 3.53.118784Pete Locascio
2020-01-24UAL6120KIAH KIDA 3.53.120388Pete Locascio
2020-01-22UAL2158KSLC KIAH 2.92.515905Pete Locascio
2020-01-11UAL6825KMSY KSLC 3.73.320549Pete Locascio
2020-01-09UAL1754KIAH KMSY 1.10.75904Dan Downs
2019-12-31UAL724KMSY KIAH 1.316810Michael Roth
2019-12-30UAL1794KIAD KMSY 2.72.515534Michael Roth
2019-12-29UAL419KSEA KIAD 4.84.528803Michael Roth
2019-11-13UAL2050KIAH KSEA 4.64.225367Pete Locascio